createdAt,value
2022-09-16T00:01:14.434Z,74.22
2022-09-16T00:03:46.264Z,74.22
2022-09-16T00:06:22.545Z,74.26
2022-09-16T00:08:50.902Z,74.39
2022-09-16T00:11:19.219Z,74.49
2022-09-16T00:13:48.373Z,74.55
2022-09-16T00:16:22.827Z,74.63
2022-09-16T00:18:58.165Z,74.68
2022-09-16T00:21:27.339Z,74.82
2022-09-16T00:23:56.611Z,74.89
2022-09-16T00:26:24.437Z,74.94
2022-09-16T00:28:52.288Z,75.01
2022-09-16T00:31:20.083Z,75.11
2022-09-16T00:33:48.077Z,75.16
2022-09-16T00:36:19.771Z,75.25
2022-09-16T00:38:52.760Z,75.39
2022-09-16T00:41:25.397Z,75.46
2022-09-16T00:46:41.750Z,75.77
2022-09-16T00:49:20.238Z,75.91
2022-09-16T00:51:51.329Z,76.11
2022-09-16T00:54:20.268Z,76.28
2022-09-16T00:56:51.733Z,76.49
2022-09-16T00:59:27.804Z,76.73
2022-09-16T01:01:56.974Z,76.96
2022-09-16T01:04:29.479Z,77.15
2022-09-16T01:06:57.635Z,77.30
2022-09-16T01:09:26.932Z,77.44
2022-09-16T01:11:54.684Z,77.57
2022-09-16T01:14:42.635Z,77.73
2022-09-16T01:17:40.976Z,77.84
2022-09-16T01:20:31.705Z,77.97
2022-09-16T01:23:24.280Z,78.10
2022-09-16T01:26:30.117Z,78.22
2022-09-16T01:29:28.774Z,78.30
2022-09-16T01:32:15.031Z,78.36
2022-09-16T01:42:52.246Z,78.61
2022-09-16T01:45:28.614Z,78.66
2022-09-16T01:48:19.661Z,78.74
2022-09-16T01:51:06.563Z,78.76
2022-09-16T01:54:00.204Z,78.86
2022-09-16T01:56:44.405Z,78.98
2022-09-16T01:59:29.224Z,79.08
2022-09-16T02:02:14.696Z,79.14
2022-09-16T02:04:49.125Z,79.24
2022-09-16T02:07:20.656Z,79.34
2022-09-16T02:10:08.450Z,79.44
2022-09-16T02:12:41.498Z,79.52
2022-09-16T02:15:12.793Z,79.55
2022-09-16T02:17:45.418Z,79.54
2022-09-16T02:20:19.951Z,79.58
2022-09-16T02:22:52.498Z,79.60
2022-09-16T02:25:21.954Z,79.62
2022-09-16T02:27:52.236Z,79.63
2022-09-16T02:30:22.457Z,79.69
2022-09-16T02:32:57.192Z,79.74
2022-09-16T02:35:27.223Z,79.80
2022-09-16T02:38:07.461Z,79.89
2022-09-16T02:40:43.136Z,79.99
2022-09-16T02:43:11.196Z,80.05
2022-09-16T02:46:26.990Z,80.16
2022-09-16T02:49:28.443Z,80.32
2022-09-16T02:52:30.713Z,80.38
2022-09-16T02:55:18.266Z,80.49
2022-09-16T02:57:46.600Z,80.55
2022-09-16T03:00:14.494Z,80.57
2022-09-16T03:02:42.254Z,80.61
2022-09-16T03:05:09.967Z,80.65
2022-09-16T03:07:39.870Z,80.67
2022-09-16T03:10:11.081Z,80.71
2022-09-16T03:13:33.472Z,80.79
2022-09-16T03:16:13.503Z,80.86
2022-09-16T03:19:15.325Z,80.91
2022-09-16T03:22:27.947Z,80.92
2022-09-16T03:25:43.373Z,80.95
2022-09-16T03:28:39.893Z,81.01
2022-09-16T03:31:33.708Z,80.97
2022-09-16T03:34:34.723Z,80.96
2022-09-16T03:37:08.283Z,80.93
2022-09-16T03:39:36.690Z,80.89
2022-09-16T03:42:11.533Z,80.84
2022-09-16T03:44:41.067Z,80.88
2022-09-16T03:47:09.231Z,80.97
2022-09-16T03:49:37.296Z,81.07
2022-09-16T03:52:05.747Z,81.11
2022-09-16T04:02:22.108Z,81.16
2022-09-16T04:04:49.972Z,81.16
2022-09-16T04:07:17.838Z,81.15
2022-09-16T04:09:45.749Z,81.19
2022-09-16T04:12:14.428Z,81.23
2022-09-16T04:14:42.278Z,81.24
2022-09-16T04:17:10.022Z,81.28
2022-09-16T04:19:37.845Z,81.32
2022-09-16T04:22:05.654Z,81.36
2022-09-16T04:24:33.328Z,81.35
2022-09-16T04:27:00.994Z,81.37
2022-09-16T04:29:28.853Z,81.38
2022-09-16T04:31:56.649Z,81.36
2022-09-16T04:34:24.420Z,81.34
2022-09-16T04:36:52.181Z,81.37
2022-09-16T04:39:19.992Z,81.38
2022-09-16T04:41:47.797Z,81.42
2022-09-16T04:44:16.050Z,81.43
2022-09-16T04:46:43.892Z,81.41
2022-09-16T04:49:13.045Z,81.42
2022-09-16T04:51:40.803Z,81.46
2022-09-16T04:54:08.741Z,81.63
2022-09-16T04:56:36.609Z,81.75
2022-09-16T04:59:06.806Z,81.84
2022-09-16T05:01:38.757Z,81.88
2022-09-16T05:04:08.163Z,81.83
2022-09-16T05:06:40.680Z,81.79
2022-09-16T05:09:11.365Z,81.73
2022-09-16T05:11:41.240Z,81.70
2022-09-16T05:14:15.947Z,81.62
2022-09-16T05:16:45.487Z,81.63
2022-09-16T05:19:14.884Z,81.56
2022-09-16T05:21:43.921Z,81.45
2022-09-16T05:24:13.972Z,81.43
2022-09-16T05:26:43.447Z,81.45
2022-09-16T05:29:17.598Z,81.36
2022-09-16T05:31:49.206Z,81.20
2022-09-16T05:34:23.335Z,81.09
2022-09-16T05:36:54.082Z,80.81
2022-09-16T05:39:24.760Z,80.66
2022-09-16T05:41:58.359Z,80.53
2022-09-16T05:44:27.739Z,80.33
2022-09-16T05:46:56.135Z,80.33
2022-09-16T05:49:24.551Z,80.25
2022-09-16T05:51:54.024Z,80.15
2022-09-16T05:54:24.004Z,80.44
2022-09-16T05:56:51.810Z,80.46
2022-09-16T05:59:19.754Z,80.48
2022-09-16T06:01:47.730Z,80.07
2022-09-16T06:04:16.013Z,80.01
2022-09-16T06:06:46.170Z,79.95
2022-09-16T06:09:22.466Z,79.79
2022-09-16T06:11:58.069Z,79.71
2022-09-16T06:14:28.638Z,79.30
2022-09-16T06:16:56.698Z,79.21
2022-09-16T06:19:24.706Z,78.97
2022-09-16T06:21:52.412Z,78.88
2022-09-16T06:24:20.998Z,78.89
2022-09-16T06:26:49.887Z,78.54
2022-09-16T06:29:18.031Z,78.63
2022-09-16T06:31:46.031Z,78.50
2022-09-16T06:34:18.627Z,78.22
2022-09-16T06:36:47.873Z,77.63
2022-09-16T06:39:17.426Z,77.61
2022-09-16T06:41:49.603Z,77.64
2022-09-16T06:44:17.371Z,77.42
2022-09-16T06:46:45.025Z,77.13
2022-09-16T06:49:13.274Z,77.18
2022-09-16T06:51:41.852Z,76.81
2022-09-16T06:54:10.646Z,76.57
2022-09-16T06:56:41.257Z,76.28
2022-09-16T06:59:11.524Z,76.15
2022-09-16T07:01:39.417Z,76.05
2022-09-16T07:04:11.267Z,75.99
2022-09-16T07:09:27.420Z,75.29
2022-09-16T07:11:55.477Z,75.05
2022-09-16T07:14:23.572Z,74.87
2022-09-16T07:16:52.881Z,74.17
2022-09-16T07:19:21.025Z,73.16
2022-09-16T07:21:49.121Z,73.03
2022-09-16T07:24:17.177Z,72.05
2022-09-16T07:26:46.053Z,72.55
2022-09-16T07:29:18.264Z,71.92
2022-09-16T07:31:49.309Z,72.05
2022-09-16T07:34:18.561Z,71.98
2022-09-16T07:36:48.736Z,70.91
2022-09-16T07:39:51.775Z,71.19
2022-09-16T07:42:18.246Z,70.34
2022-09-16T07:44:45.408Z,69.92
2022-09-16T07:47:11.699Z,69.30
2022-09-16T07:49:38.050Z,69.36
2022-09-16T07:52:04.430Z,69.55
2022-09-16T07:54:31.428Z,69.26
2022-09-16T07:56:57.911Z,68.51
2022-09-16T07:59:24.255Z,67.66
2022-09-16T08:01:50.960Z,68.12
2022-09-16T08:04:19.667Z,67.74
2022-09-16T08:06:46.570Z,67.24
2022-09-16T08:12:04.009Z,65.50
2022-09-16T08:14:30.518Z,64.92
2022-09-16T08:16:57.228Z,64.69
2022-09-16T08:19:23.607Z,64.93
2022-09-16T08:21:50.747Z,64.39
2022-09-16T08:24:17.507Z,63.75
2022-09-16T08:26:44.089Z,63.28
2022-09-16T08:29:10.932Z,63.01
2022-09-16T08:31:38.304Z,62.50
2022-09-16T08:34:05.344Z,62.37
2022-09-16T08:36:34.684Z,62.45
2022-09-16T08:39:01.260Z,62.07
2022-09-16T08:42:07.960Z,61.68
2022-09-16T08:44:58.165Z,61.00
2022-09-16T08:48:02.613Z,61.44
2022-09-16T08:50:36.213Z,60.57
2022-09-16T08:53:09.769Z,60.09
2022-09-16T08:55:47.130Z,60.73
2022-09-16T08:58:26.245Z,60.78
2022-09-16T09:01:00.940Z,60.37
2022-09-16T09:03:39.328Z,59.84
2022-09-16T09:06:26.267Z,60.78
2022-09-16T09:09:08.059Z,59.65
2022-09-16T09:11:57.389Z,59.79
2022-09-16T09:15:08.315Z,58.99
2022-09-16T09:17:52.070Z,57.61
2022-09-16T09:20:24.745Z,56.39
2022-09-16T09:23:08.276Z,56.53
2022-09-16T09:25:47.049Z,56.80
2022-09-16T09:28:48.676Z,56.73
2022-09-16T09:31:52.216Z,56.61
2022-09-16T09:34:34.977Z,56.29
2022-09-16T09:37:35.932Z,57.39
2022-09-16T09:40:23.696Z,56.35
2022-09-16T09:43:23.199Z,56.21
2022-09-16T09:46:03.664Z,55.57
2022-09-16T09:48:56.752Z,54.59
2022-09-16T09:51:38.644Z,55.15
2022-09-16T09:54:27.780Z,56.39
2022-09-16T09:57:01.040Z,56.46
2022-09-16T10:00:25.619Z,55.29
2022-09-16T10:03:03.412Z,54.89
2022-09-16T10:05:31.021Z,56.67
2022-09-16T10:08:18.296Z,57.21
2022-09-16T10:10:59.104Z,57.27
2022-09-16T10:13:34.857Z,57.47
2022-09-16T10:16:17.345Z,58.19
2022-09-16T10:18:44.854Z,57.81
2022-09-16T10:21:15.554Z,55.91
2022-09-16T10:24:05.355Z,55.16
2022-09-16T10:26:40.625Z,53.97
2022-09-16T10:29:19.433Z,53.06
2022-09-16T10:31:47.728Z,53.38
2022-09-16T10:34:32.266Z,53.53
2022-09-16T10:37:27.542Z,53.51
2022-09-16T10:39:56.837Z,54.10
2022-09-16T10:42:55.285Z,53.39
2022-09-16T10:45:28.019Z,53.17
2022-09-16T10:48:04.909Z,54.16
2022-09-16T10:50:34.184Z,55.17
2022-09-16T10:53:01.047Z,55.37
2022-09-16T10:55:38.298Z,55.08
2022-09-16T10:58:17.719Z,55.71
2022-09-16T11:01:13.890Z,55.91
2022-09-16T11:04:30.598Z,55.35
2022-09-16T11:07:12.397Z,54.65
2022-09-16T11:10:10.186Z,54.46
2022-09-16T11:13:12.602Z,53.95
2022-09-16T11:16:00.833Z,54.03
2022-09-16T11:19:04.982Z,54.09
2022-09-16T11:21:46.595Z,54.02
2022-09-16T11:24:29.878Z,54.33
2022-09-16T11:27:19.712Z,54.49
2022-09-16T11:29:56.157Z,55.24
2022-09-16T11:32:46.825Z,55.08
2022-09-16T11:35:33.092Z,54.55
2022-09-16T11:38:41.173Z,54.56
2022-09-16T11:41:24.035Z,54.48
2022-09-16T11:44:04.762Z,54.71
2022-09-16T11:46:55.223Z,54.90
2022-09-16T11:49:53.149Z,54.69
2022-09-16T11:52:51.867Z,55.19
2022-09-16T11:55:41.927Z,54.01
2022-09-16T11:58:18.399Z,53.30
2022-09-16T12:00:46.587Z,53.72
2022-09-16T12:03:19.794Z,53.51
2022-09-16T12:05:53.081Z,54.50
2022-09-16T12:08:58.768Z,54.91
2022-09-16T12:11:45.517Z,56.10
2022-09-16T12:14:31.398Z,56.69
2022-09-16T12:17:19.897Z,57.24
2022-09-16T12:20:08.245Z,56.09
2022-09-16T12:22:41.529Z,55.79
2022-09-16T12:25:46.065Z,55.33
2022-09-16T12:28:24.025Z,54.85
2022-09-16T12:31:04.249Z,53.63
2022-09-16T12:33:36.322Z,52.84
2022-09-16T12:36:10.603Z,52.02
2022-09-16T12:38:37.607Z,52.52
2022-09-16T12:41:26.265Z,52.89
2022-09-16T12:44:30.429Z,52.08
2022-09-16T12:47:46.042Z,51.13
2022-09-16T12:50:56.337Z,52.20
2022-09-16T12:53:37.042Z,49.75
2022-09-16T12:56:22.328Z,49.07
2022-09-16T12:59:00.727Z,47.04
2022-09-16T13:02:02.329Z,47.44
2022-09-16T13:04:53.088Z,47.90
2022-09-16T13:07:26.580Z,48.62
2022-09-16T13:10:13.756Z,48.31
2022-09-16T13:12:43.893Z,48.25
2022-09-16T13:15:35.267Z,48.25
2022-09-16T13:18:22.665Z,48.97
2022-09-16T13:21:30.258Z,49.72
2022-09-16T13:24:20.173Z,50.76
2022-09-16T13:26:46.618Z,51.16
2022-09-16T13:29:43.507Z,51.79
2022-09-16T13:32:43.899Z,51.85
2022-09-16T13:35:19.681Z,51.71
2022-09-16T13:37:51.457Z,52.21
2022-09-16T13:40:30.406Z,52.05
2022-09-16T13:43:31.455Z,51.59
2022-09-16T13:46:06.479Z,51.52
2022-09-16T13:48:39.814Z,51.30
2022-09-16T13:51:12.975Z,50.89
2022-09-16T13:53:45.946Z,50.11
2022-09-16T13:56:48.087Z,47.42
2022-09-16T13:59:38.471Z,46.42
2022-09-16T14:02:35.687Z,46.33
2022-09-16T14:05:24.012Z,46.43
2022-09-16T14:08:32.033Z,46.48
2022-09-16T14:11:18.484Z,46.50
2022-09-16T14:14:04.809Z,47.35
2022-09-16T14:16:34.457Z,47.83
2022-09-16T14:19:36.274Z,50.09
2022-09-16T14:25:56.055Z,56.25
2022-09-16T14:28:29.349Z,57.50
2022-09-16T14:31:00.490Z,59.18
2022-09-16T14:33:44.223Z,60.37
2022-09-16T14:36:20.135Z,59.32
2022-09-16T14:38:54.556Z,58.85
2022-09-16T14:41:37.978Z,59.08
2022-09-16T14:44:18.442Z,59.42
2022-09-16T14:47:04.715Z,59.56
2022-09-16T14:49:37.391Z,59.34
2022-09-16T14:52:04.336Z,59.92
2022-09-16T14:54:31.277Z,59.58
2022-09-16T14:57:02.523Z,58.97
2022-09-16T14:59:37.249Z,59.51
2022-09-16T15:02:18.066Z,59.35
2022-09-16T15:04:47.810Z,58.86
2022-09-16T15:07:21.334Z,59.26
2022-09-16T15:09:50.105Z,58.18
2022-09-16T15:12:26.578Z,58.69
2022-09-16T15:14:53.638Z,58.47
2022-09-16T15:17:22.716Z,58.94
2022-09-16T15:19:58.769Z,58.48
2022-09-16T15:22:29.012Z,58.47
2022-09-16T15:25:41.071Z,58.46
2022-09-16T15:28:17.588Z,58.58
2022-09-16T15:31:07.706Z,58.41
2022-09-16T15:33:41.528Z,58.25
2022-09-16T15:36:44.116Z,58.14
2022-09-16T15:39:42.733Z,58.73
2022-09-16T15:42:17.485Z,59.12
2022-09-16T15:44:51.921Z,58.76
2022-09-16T15:47:25.115Z,57.86
2022-09-16T15:50:21.703Z,57.18
2022-09-16T15:53:06.412Z,57.82
2022-09-16T15:55:57.374Z,58.20
2022-09-16T15:58:57.816Z,58.43
2022-09-16T16:01:31.461Z,57.99
2022-09-16T16:04:02.592Z,57.70
2022-09-16T16:06:54.471Z,57.83
2022-09-16T16:09:28.307Z,57.97
2022-09-16T16:11:55.640Z,57.62
2022-09-16T16:14:24.228Z,57.59
2022-09-16T16:17:11.715Z,57.72
2022-09-16T16:19:44.816Z,58.30
2022-09-16T16:22:26.538Z,58.51
2022-09-16T16:24:56.045Z,59.01
2022-09-16T16:27:25.926Z,59.34
2022-09-16T16:29:53.886Z,59.42
2022-09-16T16:32:25.228Z,59.43
2022-09-16T16:34:58.930Z,59.71
2022-09-16T16:38:22.002Z,60.02
2022-09-16T16:40:52.026Z,61.12
2022-09-16T16:43:18.911Z,61.62
2022-09-16T16:45:56.419Z,62.04
2022-09-16T16:48:29.826Z,62.79
2022-09-16T16:51:21.911Z,63.01
2022-09-16T16:54:09.696Z,63.03
2022-09-16T16:56:47.645Z,62.95
2022-09-16T16:59:15.169Z,62.77
2022-09-16T17:05:06.522Z,61.31
2022-09-16T17:08:10.538Z,60.19
2022-09-16T17:11:15.282Z,58.88
2022-09-16T17:13:52.254Z,58.87
2022-09-16T17:16:26.739Z,59.08
2022-09-16T17:18:55.171Z,59.24
2022-09-16T17:22:14.367Z,59.38
2022-09-16T17:24:42.811Z,59.57
2022-09-16T17:31:38.837Z,60.35
2022-09-16T17:34:14.506Z,61.08
2022-09-16T17:36:45.777Z,61.69
2022-09-16T17:39:22.318Z,62.47
2022-09-16T17:41:49.659Z,62.94
2022-09-16T17:44:20.520Z,63.30
2022-09-16T17:46:48.152Z,63.77
2022-09-16T17:49:23.080Z,64.29
2022-09-16T17:51:51.479Z,64.56
2022-09-16T17:54:18.552Z,64.86
2022-09-16T17:56:45.286Z,65.07
2022-09-16T17:59:15.059Z,65.32
2022-09-16T18:01:41.593Z,65.56
2022-09-16T18:04:08.271Z,65.83
2022-09-16T18:06:44.510Z,66.24
2022-09-16T18:09:16.018Z,66.67
2022-09-16T18:11:42.762Z,67.03
2022-09-16T18:14:12.384Z,67.55
2022-09-16T18:16:40.340Z,67.74
2022-09-16T18:19:07.325Z,67.95
2022-09-16T18:21:36.564Z,68.11
2022-09-16T18:24:04.753Z,68.24
2022-09-16T18:26:31.754Z,68.52
2022-09-16T18:29:16.645Z,68.91
2022-09-16T18:31:46.690Z,69.14
2022-09-16T18:34:14.731Z,69.51
2022-09-16T18:36:41.699Z,69.83
2022-09-16T18:39:14.037Z,70.15
2022-09-16T18:41:44.395Z,70.43
2022-09-16T18:44:24.949Z,70.69
2022-09-16T18:46:53.012Z,70.99
2022-09-16T18:49:25.958Z,71.26
2022-09-16T18:52:14.456Z,71.40
2022-09-16T18:54:45.563Z,71.68
2022-09-16T18:57:24.804Z,71.87
2022-09-16T18:59:51.752Z,72.08
2022-09-16T19:02:19.385Z,72.33
2022-09-16T19:04:47.032Z,72.51
2022-09-16T19:07:17.733Z,72.69
2022-09-16T19:09:46.005Z,72.86
2022-09-16T19:12:13.105Z,73.10
2022-09-16T19:14:41.224Z,73.22
2022-09-16T19:17:09.367Z,73.33
2022-09-16T19:19:36.398Z,73.49
2022-09-16T19:22:05.903Z,73.57
2022-09-16T19:24:33.964Z,73.59
2022-09-16T19:27:01.679Z,73.69
2022-09-16T19:29:32.712Z,73.78
2022-09-16T19:32:00.526Z,73.90
2022-09-16T19:34:29.507Z,73.97
2022-09-16T19:36:56.511Z,74.03
2022-09-16T19:39:29.105Z,74.06
2022-09-16T19:41:56.475Z,74.09
2022-09-16T19:44:23.687Z,74.08
2022-09-16T19:46:56.334Z,74.09
2022-09-16T19:49:23.515Z,74.13
2022-09-16T19:51:52.845Z,74.15
2022-09-16T19:54:26.947Z,74.10
2022-09-16T19:56:54.545Z,74.03
2022-09-16T19:59:27.175Z,73.98
2022-09-16T20:02:17.736Z,73.92
2022-09-16T20:04:54.046Z,73.96
2022-09-16T20:07:34.616Z,73.91
2022-09-16T20:10:02.178Z,73.85
2022-09-16T20:12:33.447Z,73.79
2022-09-16T20:15:04.557Z,73.78
2022-09-16T20:17:31.398Z,73.72
2022-09-16T20:20:09.712Z,73.63
2022-09-16T20:22:37.816Z,73.59
2022-09-16T20:25:22.447Z,73.60
2022-09-16T20:27:51.937Z,73.58
2022-09-16T20:30:19.546Z,73.60
2022-09-16T20:32:46.585Z,73.58
2022-09-16T20:35:17.402Z,73.55
2022-09-16T20:37:49.169Z,73.56
2022-09-16T20:40:19.148Z,73.43
2022-09-16T20:42:47.802Z,73.38
2022-09-16T20:45:15.627Z,73.30
2022-09-16T20:47:43.579Z,73.30
2022-09-16T20:50:11.154Z,73.22
2022-09-16T20:52:38.500Z,73.28
2022-09-16T20:55:07.693Z,73.35
2022-09-16T20:57:35.341Z,73.48
2022-09-16T21:00:04.013Z,73.62
2022-09-16T21:02:35.770Z,73.77
2022-09-16T21:05:06.666Z,74.02
2022-09-16T21:07:34.233Z,74.19
2022-09-16T21:10:01.595Z,74.27
2022-09-16T21:12:30.805Z,74.28
2022-09-16T21:14:58.167Z,74.19
2022-09-16T21:17:25.294Z,74.08
2022-09-16T21:19:54.679Z,73.92
2022-09-16T21:22:22.170Z,73.75
2022-09-16T21:24:48.914Z,73.63
2022-09-16T21:27:16.269Z,73.61
2022-09-16T21:29:43.483Z,73.50
2022-09-16T21:32:11.023Z,73.33
2022-09-16T21:34:39.365Z,73.15
2022-09-16T21:37:09.758Z,73.00
2022-09-16T21:39:38.032Z,73.03
2022-09-16T21:42:04.893Z,72.95
2022-09-16T21:44:33.241Z,72.83
2022-09-16T21:47:01.055Z,72.79
2022-09-16T21:49:29.877Z,72.71
2022-09-16T21:51:59.382Z,72.56
2022-09-16T21:54:28.014Z,72.51
2022-09-16T21:56:54.534Z,72.58
2022-09-16T21:59:52.830Z,72.64
2022-09-16T22:02:35.490Z,72.62
2022-09-16T22:05:07.971Z,72.71
2022-09-16T22:07:41.565Z,72.85
2022-09-16T22:13:30.172Z,72.97
2022-09-16T22:15:58.369Z,73.05
2022-09-16T22:18:27.644Z,73.10
2022-09-16T22:20:57.413Z,73.23
2022-09-16T22:23:23.949Z,73.39
2022-09-16T22:25:50.447Z,73.54
2022-09-16T22:28:17.032Z,73.70
2022-09-16T22:30:43.674Z,73.80
2022-09-16T22:33:10.878Z,73.87
2022-09-16T22:35:37.639Z,73.96
2022-09-16T22:38:04.179Z,74.03
2022-09-16T22:40:31.400Z,74.15
2022-09-16T22:42:58.307Z,74.19
2022-09-16T22:45:25.007Z,74.26
2022-09-16T22:47:51.667Z,74.32
2022-09-16T22:50:18.009Z,74.32
2022-09-16T22:52:44.873Z,74.37
2022-09-16T22:55:11.321Z,74.38
2022-09-16T22:57:37.831Z,74.39
2022-09-16T23:00:05.132Z,74.42
2022-09-16T23:02:31.609Z,74.50
2022-09-16T23:04:57.993Z,74.50
2022-09-16T23:07:24.359Z,74.55
2022-09-16T23:09:50.687Z,74.60
2022-09-16T23:12:17.241Z,74.61
2022-09-16T23:14:44.145Z,74.65
2022-09-16T23:17:10.610Z,74.68
2022-09-16T23:19:37.206Z,74.73
2022-09-16T23:22:03.539Z,74.82
2022-09-16T23:24:30.055Z,74.90
2022-09-16T23:26:56.475Z,74.95
2022-09-16T23:29:22.894Z,75.00
2022-09-16T23:31:49.271Z,75.00
2022-09-16T23:34:20.764Z,74.97
2022-09-16T23:36:48.381Z,74.90
2022-09-16T23:39:15.938Z,74.82
2022-09-16T23:41:43.184Z,74.83
2022-09-16T23:44:12.911Z,74.79
2022-09-16T23:46:39.372Z,74.75
2022-09-16T23:49:08.692Z,74.71
2022-09-16T23:51:35.870Z,74.67
2022-09-16T23:54:04.047Z,74.66
2022-09-16T23:56:32.079Z,74.66
2022-09-16T23:58:59.995Z,74.67
